createdAt,value
2018-05-18T00:01:43.165Z,11.50
2018-05-18T00:04:11.471Z,11.50
2018-05-18T00:06:41.490Z,11.50
2018-05-18T00:09:09.576Z,11.40
2018-05-18T00:11:38.661Z,11.40
2018-05-18T00:14:06.760Z,11.40
2018-05-18T00:16:39.763Z,11.40
2018-05-18T00:19:07.854Z,11.40
2018-05-18T00:21:37.869Z,11.40
2018-05-18T00:24:05.972Z,11.40
2018-05-18T00:26:34.082Z,11.40
2018-05-18T00:29:02.213Z,11.40
2018-05-18T00:31:30.292Z,11.30
2018-05-18T00:33:58.748Z,11.30
2018-05-18T00:36:26.869Z,11.30
2018-05-18T00:38:56.908Z,11.30
2018-05-18T00:41:25.933Z,11.30
2018-05-18T00:43:54.047Z,11.30
2018-05-18T00:46:25.504Z,11.30
2018-05-18T00:48:53.605Z,11.30
2018-05-18T00:51:21.698Z,11.30
2018-05-18T00:53:55.233Z,11.30
2018-05-18T00:56:25.276Z,11.30
2018-05-18T00:58:55.292Z,11.30
2018-05-18T01:01:23.401Z,11.30
2018-05-18T01:03:51.553Z,11.30
2018-05-18T01:06:20.434Z,11.30
2018-05-18T01:08:53.476Z,11.30
2018-05-18T01:11:29.013Z,11.30
2018-05-18T01:13:59.906Z,11.30
2018-05-18T01:16:28.981Z,11.20
2018-05-18T01:18:57.101Z,11.30
2018-05-18T01:21:29.287Z,11.30
2018-05-18T01:23:59.082Z,11.20
2018-05-18T01:26:27.190Z,11.20
2018-05-18T01:28:55.271Z,11.30
2018-05-18T01:31:24.370Z,11.30
2018-05-18T01:33:57.556Z,11.30
2018-05-18T01:36:25.674Z,11.30
2018-05-18T01:39:05.875Z,11.20
2018-05-18T01:41:53.233Z,11.20
2018-05-18T01:44:41.673Z,11.20
2018-05-18T01:47:10.531Z,11.30
2018-05-18T01:49:38.621Z,11.20
2018-05-18T01:52:06.773Z,11.20
2018-05-18T01:54:40.293Z,11.30
2018-05-18T01:57:08.395Z,11.20
2018-05-18T01:59:36.485Z,11.20
2018-05-18T02:02:08.021Z,11.20
2018-05-18T02:04:36.109Z,11.20
2018-05-18T02:07:04.225Z,11.20
2018-05-18T02:12:31.430Z,11.20
2018-05-18T02:14:59.536Z,11.20
2018-05-18T02:17:27.650Z,11.20
2018-05-18T02:20:05.946Z,11.20
2018-05-18T02:22:34.811Z,11.20
2018-05-18T02:25:03.912Z,11.20
2018-05-18T02:27:32.014Z,11.20
2018-05-18T02:30:00.133Z,11.20
2018-05-18T02:32:28.999Z,11.20
2018-05-18T02:34:57.142Z,11.20
2018-05-18T02:37:25.240Z,11.20
2018-05-18T02:39:54.251Z,11.20
2018-05-18T02:42:22.351Z,11.20
2018-05-18T02:44:50.465Z,11.20
2018-05-18T02:47:19.439Z,11.20
2018-05-18T02:49:47.546Z,11.30
2018-05-18T02:52:16.641Z,11.30
2018-05-18T02:54:44.720Z,11.20
2018-05-18T02:57:12.816Z,11.30
2018-05-18T02:59:40.959Z,11.30
2018-05-18T03:02:09.063Z,11.30
2018-05-18T03:04:40.392Z,11.30
2018-05-18T03:07:09.442Z,11.30
2018-05-18T03:09:37.544Z,11.20
2018-05-18T03:12:07.634Z,11.20
2018-05-18T03:14:40.516Z,11.20
2018-05-18T03:17:08.623Z,11.20
2018-05-18T03:19:37.258Z,11.20
2018-05-18T03:22:06.331Z,11.10
2018-05-18T03:24:34.437Z,11.20
2018-05-18T03:27:11.044Z,11.20
2018-05-18T03:29:40.167Z,11.20
2018-05-18T03:32:08.336Z,11.20
2018-05-18T03:34:51.031Z,11.20
2018-05-18T03:37:19.135Z,11.20
2018-05-18T03:39:47.236Z,11.30
2018-05-18T03:42:17.095Z,11.20
2018-05-18T03:44:45.202Z,11.20
2018-05-18T03:47:16.764Z,11.20
2018-05-18T03:49:44.921Z,11.20
2018-05-18T03:52:13.758Z,11.20
2018-05-18T03:54:42.017Z,11.20
2018-05-18T03:57:16.833Z,11.20
2018-05-18T03:59:45.699Z,11.20
2018-05-18T04:02:27.738Z,11.20
2018-05-18T04:05:12.633Z,11.20
2018-05-18T04:07:48.352Z,11.20
2018-05-18T04:10:16.368Z,11.20
2018-05-18T04:12:46.420Z,11.20
2018-05-18T04:15:16.468Z,11.20
2018-05-18T04:17:45.613Z,11.20
2018-05-18T04:20:13.706Z,11.30
2018-05-18T04:22:42.628Z,11.20
2018-05-18T04:25:12.747Z,11.20
2018-05-18T04:27:43.866Z,11.20
2018-05-18T04:30:12.355Z,11.30
2018-05-18T04:32:43.171Z,11.30
2018-05-18T04:35:15.974Z,11.30
2018-05-18T04:37:45.238Z,11.30
2018-05-18T04:40:14.318Z,11.30
2018-05-18T04:42:42.439Z,11.30
2018-05-18T04:45:10.552Z,11.30
2018-05-18T04:47:40.598Z,11.40
2018-05-18T04:50:08.716Z,11.40
2018-05-18T04:52:36.942Z,11.40
2018-05-18T04:55:07.792Z,11.40
2018-05-18T04:57:36.826Z,11.40
2018-05-18T05:00:05.669Z,11.40
2018-05-18T05:02:33.727Z,11.40
2018-05-18T05:05:01.864Z,11.40
2018-05-18T05:07:30.050Z,11.40
2018-05-18T05:10:01.948Z,11.50
2018-05-18T05:12:33.762Z,11.50
2018-05-18T05:15:13.115Z,11.50
2018-05-18T05:17:42.356Z,11.50
2018-05-18T05:20:10.994Z,11.40
2018-05-18T05:22:39.105Z,11.50
2018-05-18T05:25:07.202Z,11.50
2018-05-18T05:27:35.342Z,11.50
2018-05-18T05:30:03.429Z,11.50
2018-05-18T05:32:50.818Z,11.50
2018-05-18T05:35:20.709Z,11.60
2018-05-18T05:37:52.133Z,11.60
2018-05-18T05:40:24.855Z,11.60
2018-05-18T05:43:00.337Z,11.70
2018-05-18T05:45:31.665Z,11.70
2018-05-18T05:48:01.683Z,11.70
2018-05-18T05:50:30.851Z,11.80
2018-05-18T05:52:58.975Z,11.80
2018-05-18T05:55:31.658Z,11.90
2018-05-18T05:58:00.013Z,11.90
2018-05-18T06:00:28.937Z,11.90
2018-05-18T06:02:57.042Z,11.90
2018-05-18T06:05:25.983Z,11.90
2018-05-18T06:07:54.041Z,11.90
2018-05-18T06:10:22.179Z,11.90
2018-05-18T06:12:51.080Z,12.00
2018-05-18T06:15:20.992Z,12.00
2018-05-18T06:17:49.097Z,12.00
2018-05-18T06:20:18.460Z,11.90
2018-05-18T06:22:46.553Z,12.00
2018-05-18T06:25:17.449Z,12.00
2018-05-18T06:27:46.524Z,12.00
2018-05-18T06:30:14.688Z,12.00
2018-05-18T06:32:42.805Z,12.00
2018-05-18T06:35:11.163Z,11.90
2018-05-18T06:37:40.066Z,11.90
2018-05-18T06:40:09.316Z,11.90
2018-05-18T06:42:38.412Z,11.90
2018-05-18T06:45:12.510Z,11.90
2018-05-18T06:47:41.255Z,11.90
2018-05-18T06:50:12.434Z,11.90
2018-05-18T06:52:41.300Z,11.90
2018-05-18T06:55:10.271Z,11.90
2018-05-18T06:57:38.444Z,11.90
2018-05-18T07:00:06.546Z,12.00
2018-05-18T07:02:36.577Z,12.00
2018-05-18T07:05:05.654Z,12.00
2018-05-18T07:07:34.814Z,12.00
2018-05-18T07:10:03.891Z,12.10
2018-05-18T07:12:33.904Z,12.10
2018-05-18T07:15:03.929Z,12.00
2018-05-18T07:17:32.981Z,12.00
2018-05-18T07:20:03.125Z,12.00
2018-05-18T07:22:31.379Z,12.00
2018-05-18T07:25:00.861Z,12.00
2018-05-18T07:27:29.122Z,12.00
2018-05-18T07:29:57.285Z,11.90
2018-05-18T07:32:26.283Z,12.00
2018-05-18T07:34:54.501Z,12.00
2018-05-18T07:37:27.022Z,12.00
2018-05-18T07:39:55.884Z,12.10
2018-05-18T07:42:24.035Z,12.10
2018-05-18T07:44:52.212Z,12.20
2018-05-18T07:47:20.380Z,12.10
2018-05-18T07:49:48.479Z,12.20
2018-05-18T07:52:27.803Z,12.20
2018-05-18T07:54:55.931Z,12.20
2018-05-18T07:57:24.131Z,12.20
2018-05-18T07:59:55.938Z,12.30
2018-05-18T08:02:24.828Z,12.30
2018-05-18T08:04:54.673Z,12.30
2018-05-18T08:07:23.552Z,12.40
2018-05-18T08:09:54.173Z,12.40
2018-05-18T08:12:23.248Z,12.40
2018-05-18T08:14:51.352Z,12.40
2018-05-18T08:17:21.448Z,12.40
2018-05-18T08:19:50.448Z,12.40
2018-05-18T08:22:20.488Z,12.50
2018-05-18T08:24:48.584Z,12.60
2018-05-18T08:27:23.767Z,12.70
2018-05-18T08:29:51.923Z,12.70
2018-05-18T08:32:24.256Z,12.90
2018-05-18T08:34:52.447Z,12.90
2018-05-18T08:37:22.297Z,12.90
2018-05-18T08:39:50.401Z,12.90
2018-05-18T08:42:21.771Z,13.10
2018-05-18T08:44:51.782Z,13.20
2018-05-18T08:47:19.881Z,13.30
2018-05-18T08:49:48.018Z,13.50
2018-05-18T08:52:21.023Z,13.40
2018-05-18T08:54:52.916Z,13.40
2018-05-18T08:57:21.031Z,13.30
2018-05-18T08:59:49.112Z,13.30
2018-05-18T09:02:17.773Z,13.30
2018-05-18T09:04:46.041Z,13.30
2018-05-18T09:07:14.904Z,13.30
2018-05-18T09:09:43.042Z,13.30
2018-05-18T09:12:12.910Z,13.50
2018-05-18T09:14:46.580Z,13.40
2018-05-18T09:17:17.343Z,13.50
2018-05-18T09:19:45.543Z,13.50
2018-05-18T09:22:15.687Z,13.60
2018-05-18T09:24:45.690Z,13.60
2018-05-18T09:27:13.801Z,13.50
2018-05-18T09:29:44.105Z,13.50
2018-05-18T09:32:13.951Z,13.70
2018-05-18T09:34:42.942Z,13.70
2018-05-18T09:37:11.083Z,13.70
2018-05-18T09:39:45.659Z,13.70
2018-05-18T09:42:14.825Z,13.60
2018-05-18T09:44:46.543Z,13.60
2018-05-18T09:47:18.322Z,13.60
2018-05-18T09:49:46.507Z,13.60
2018-05-18T09:55:15.285Z,13.60
2018-05-18T09:57:44.332Z,13.90
2018-05-18T10:00:12.427Z,14.20
2018-05-18T10:02:41.453Z,14.30
2018-05-18T10:05:09.569Z,14.20
2018-05-18T10:07:37.847Z,14.20
2018-05-18T10:10:06.916Z,14.20
2018-05-18T10:12:35.036Z,14.10
2018-05-18T10:15:09.764Z,14.10
2018-05-18T10:17:37.880Z,14.20
2018-05-18T10:20:16.317Z,14.30
2018-05-18T10:22:46.625Z,14.40
2018-05-18T10:25:27.835Z,14.40
2018-05-18T10:27:56.777Z,14.40
2018-05-18T10:30:28.949Z,14.40
2018-05-18T10:33:09.674Z,14.40
2018-05-18T10:35:37.815Z,14.30
2018-05-18T10:38:06.175Z,14.20
2018-05-18T10:40:34.269Z,14.20
2018-05-18T10:43:04.116Z,14.30
2018-05-18T10:45:40.532Z,14.30
2018-05-18T10:48:08.762Z,14.30
2018-05-18T10:50:37.956Z,14.30
2018-05-18T10:53:06.224Z,14.30
2018-05-18T10:55:37.111Z,14.30
2018-05-18T10:58:05.232Z,14.30
2018-05-18T11:00:37.270Z,14.20
2018-05-18T11:03:06.215Z,14.10
2018-05-18T11:05:34.342Z,14.00
2018-05-18T11:08:02.466Z,14.00
2018-05-18T11:10:31.474Z,14.00
2018-05-18T11:12:59.584Z,14.00
2018-05-18T11:15:27.719Z,13.90
2018-05-18T11:17:56.039Z,13.80
2018-05-18T11:20:31.113Z,14.00
2018-05-18T11:22:59.370Z,14.20
2018-05-18T11:25:27.483Z,14.30
2018-05-18T11:27:55.605Z,14.30
2018-05-18T11:30:24.480Z,14.40
2018-05-18T11:32:52.595Z,14.40
2018-05-18T11:35:20.688Z,14.50
2018-05-18T11:37:48.824Z,14.40
2018-05-18T11:40:16.933Z,14.40
2018-05-18T11:42:45.581Z,14.30
2018-05-18T11:45:14.696Z,14.20
2018-05-18T11:47:42.810Z,14.00
2018-05-18T11:50:13.990Z,14.00
2018-05-18T11:52:42.100Z,14.00
2018-05-18T11:55:10.596Z,14.10
2018-05-18T11:57:38.794Z,14.00
2018-05-18T12:00:11.386Z,14.10
2018-05-18T12:02:39.495Z,14.10
2018-05-18T12:05:13.609Z,14.10
2018-05-18T12:07:41.725Z,14.00
2018-05-18T12:10:10.726Z,14.10
2018-05-18T12:12:38.847Z,14.20
2018-05-18T12:15:07.751Z,14.10
2018-05-18T12:17:39.547Z,14.10
2018-05-18T12:20:07.684Z,14.10
2018-05-18T12:22:35.816Z,14.30
2018-05-18T12:25:03.915Z,14.50
2018-05-18T12:27:32.010Z,14.60
2018-05-18T12:30:00.100Z,14.70
2018-05-18T12:32:30.200Z,14.90
2018-05-18T12:34:59.046Z,14.80
2018-05-18T12:37:28.103Z,14.80
2018-05-18T12:39:58.224Z,14.90
2018-05-18T12:42:32.934Z,14.90
2018-05-18T12:45:03.896Z,14.70
2018-05-18T12:47:32.763Z,14.70
2018-05-18T12:50:00.859Z,14.70
2018-05-18T12:52:29.913Z,14.60
2018-05-18T12:55:02.235Z,14.50
2018-05-18T12:57:30.339Z,14.40
2018-05-18T12:59:58.446Z,14.40
2018-05-18T13:02:30.564Z,14.50
2018-05-18T13:04:59.742Z,14.70
2018-05-18T13:07:27.859Z,14.70
2018-05-18T13:09:55.953Z,14.90
2018-05-18T13:12:26.119Z,14.80
2018-05-18T13:14:54.255Z,14.90
2018-05-18T13:17:22.354Z,14.80
2018-05-18T13:19:50.830Z,14.60
2018-05-18T13:22:18.923Z,14.40
2018-05-18T13:24:50.043Z,14.50
2018-05-18T13:27:23.794Z,14.60
2018-05-18T13:29:51.900Z,14.60
2018-05-18T13:32:20.028Z,14.40
2018-05-18T13:34:48.240Z,14.40
2018-05-18T13:37:19.625Z,14.40
2018-05-18T13:39:47.969Z,14.40
2018-05-18T13:42:17.371Z,14.50
2018-05-18T13:44:49.560Z,14.90
2018-05-18T13:47:17.709Z,14.90
2018-05-18T13:49:45.817Z,14.80
2018-05-18T13:52:14.888Z,14.60
2018-05-18T13:54:48.289Z,14.70
2018-05-18T13:57:18.454Z,14.90
2018-05-18T13:59:47.008Z,15.00
2018-05-18T14:02:38.126Z,15.10
2018-05-18T14:05:08.144Z,15.00
2018-05-18T14:07:40.307Z,14.90
2018-05-18T14:10:08.626Z,14.70
2018-05-18T14:12:36.930Z,14.80
2018-05-18T14:15:08.614Z,14.90
2018-05-18T14:17:36.792Z,14.80
2018-05-18T14:20:05.361Z,14.80
2018-05-18T14:22:34.251Z,14.90
2018-05-18T14:25:02.356Z,15.00
2018-05-18T14:27:30.487Z,15.00
2018-05-18T14:30:05.755Z,15.10
2018-05-18T14:32:36.116Z,15.10
2018-05-18T14:35:09.447Z,15.10
2018-05-18T14:37:38.648Z,15.00
2018-05-18T14:40:13.751Z,14.90
2018-05-18T14:42:42.117Z,14.90
2018-05-18T14:45:10.212Z,14.80
2018-05-18T14:47:39.732Z,14.70
2018-05-18T14:50:07.827Z,14.60
2018-05-18T14:52:36.717Z,14.80
2018-05-18T14:55:05.674Z,14.90
2018-05-18T14:57:33.864Z,14.80
2018-05-18T15:00:01.950Z,14.90
2018-05-18T15:02:34.930Z,14.90
2018-05-18T15:05:03.231Z,14.90
2018-05-18T15:07:33.092Z,14.70
2018-05-18T15:10:05.065Z,14.50
2018-05-18T15:12:33.163Z,14.50
2018-05-18T15:15:02.081Z,14.50
2018-05-18T15:17:30.186Z,14.50
2018-05-18T15:19:58.285Z,14.50
2018-05-18T15:22:26.385Z,14.60
2018-05-18T15:24:55.500Z,14.50
2018-05-18T15:27:23.652Z,14.60
2018-05-18T15:29:51.764Z,14.60
2018-05-18T15:32:21.927Z,14.60
2018-05-18T15:34:51.719Z,14.50
2018-05-18T15:37:19.852Z,14.50
2018-05-18T15:39:48.769Z,14.50
2018-05-18T15:42:16.876Z,14.40
2018-05-18T15:44:45.996Z,14.50
2018-05-18T15:47:19.994Z,14.40
2018-05-18T15:49:48.100Z,14.30
2018-05-18T15:52:16.208Z,14.10
2018-05-18T15:54:44.348Z,14.00
2018-05-18T15:57:16.199Z,13.90
2018-05-18T15:59:44.606Z,13.80
2018-05-18T16:02:12.758Z,13.80
2018-05-18T16:04:42.802Z,13.70
2018-05-18T16:07:12.651Z,13.60
2018-05-18T16:09:41.911Z,13.60
2018-05-18T16:12:10.005Z,13.60
2018-05-18T16:14:41.981Z,13.60
2018-05-18T16:17:12.260Z,13.60
2018-05-18T16:19:41.081Z,13.70
2018-05-18T16:22:09.200Z,13.60
2018-05-18T16:24:37.688Z,13.60
2018-05-18T16:27:09.773Z,13.60
2018-05-18T16:29:39.612Z,13.50
2018-05-18T16:32:08.657Z,13.50
2018-05-18T16:34:40.636Z,13.50
2018-05-18T16:37:08.739Z,13.50
2018-05-18T16:39:37.816Z,13.40
2018-05-18T16:42:05.953Z,13.30
2018-05-18T16:44:38.097Z,13.20
2018-05-18T16:47:06.218Z,13.30
2018-05-18T16:49:35.065Z,13.30
2018-05-18T16:52:05.198Z,13.30
2018-05-18T16:54:35.242Z,13.40
2018-05-18T16:57:18.487Z,13.40
2018-05-18T16:59:50.382Z,13.30
2018-05-18T17:02:18.496Z,13.20
2018-05-18T17:04:46.617Z,13.30
2018-05-18T17:07:15.809Z,13.40
2018-05-18T17:09:43.928Z,13.40
2018-05-18T17:12:13.924Z,13.40
2018-05-18T17:14:42.014Z,13.30
2018-05-18T17:17:10.118Z,13.20
2018-05-18T17:19:39.783Z,13.10
2018-05-18T17:22:09.662Z,13.10
2018-05-18T17:24:39.701Z,13.10
2018-05-18T17:27:11.173Z,13.00
2018-05-18T17:29:42.635Z,13.10
2018-05-18T17:32:11.707Z,13.10
2018-05-18T17:34:39.831Z,13.20
2018-05-18T17:37:11.228Z,13.30
2018-05-18T17:39:42.488Z,13.30
2018-05-18T17:42:12.336Z,13.30
2018-05-18T17:44:47.527Z,13.30
2018-05-18T17:47:18.943Z,13.30
2018-05-18T17:49:48.999Z,13.20
2018-05-18T17:52:18.088Z,13.10
2018-05-18T17:54:47.113Z,13.00
2018-05-18T17:57:15.226Z,13.00
2018-05-18T17:59:44.219Z,13.10
2018-05-18T18:02:12.315Z,13.20
2018-05-18T18:04:40.436Z,13.20
2018-05-18T18:07:09.466Z,13.20
2018-05-18T18:09:37.597Z,13.10
2018-05-18T18:12:07.671Z,13.00
2018-05-18T18:14:46.255Z,13.10
2018-05-18T18:17:17.493Z,13.00
2018-05-18T18:19:45.575Z,13.00
2018-05-18T18:22:17.503Z,12.80
2018-05-18T18:24:45.842Z,12.70
2018-05-18T18:27:13.996Z,12.70
2018-05-18T18:29:42.109Z,12.70
2018-05-18T18:32:10.219Z,12.70
2018-05-18T18:34:39.163Z,12.60
2018-05-18T18:37:07.169Z,12.50
2018-05-18T18:39:35.787Z,12.50
2018-05-18T18:42:03.934Z,12.50
2018-05-18T18:44:32.039Z,12.50
2018-05-18T18:47:02.054Z,12.50
2018-05-18T18:49:34.097Z,12.50
2018-05-18T18:52:02.286Z,12.50
2018-05-18T18:54:30.345Z,12.50
2018-05-18T18:57:01.163Z,12.40
2018-05-18T18:59:29.335Z,12.40
2018-05-18T19:01:59.137Z,12.40
2018-05-18T19:04:27.254Z,12.30
2018-05-18T19:06:55.348Z,12.40
2018-05-18T19:09:23.433Z,12.40
2018-05-18T19:11:53.535Z,12.40
2018-05-18T19:14:23.418Z,12.40
2018-05-18T19:16:51.534Z,12.30
2018-05-18T19:19:19.623Z,12.30
2018-05-18T19:21:47.747Z,12.30
2018-05-18T19:24:15.971Z,12.30
2018-05-18T19:26:44.033Z,12.30
2018-05-18T19:29:14.813Z,12.20
2018-05-18T19:31:44.909Z,12.20
2018-05-18T19:34:13.781Z,12.10
2018-05-18T19:36:46.655Z,12.10
2018-05-18T19:39:14.794Z,12.10
2018-05-18T19:41:43.872Z,12.10
2018-05-18T19:44:12.011Z,12.20
2018-05-18T19:46:40.103Z,12.20
2018-05-18T19:49:16.366Z,12.10
2018-05-18T19:51:44.472Z,12.20
2018-05-18T19:54:12.593Z,12.10
2018-05-18T19:56:43.728Z,12.10
2018-05-18T19:59:11.815Z,12.10
2018-05-18T20:01:46.607Z,12.00
2018-05-18T20:04:19.029Z,12.00
2018-05-18T20:06:47.912Z,12.00
2018-05-18T20:09:16.030Z,12.00
2018-05-18T20:11:46.057Z,12.00
2018-05-18T20:14:17.700Z,12.00
2018-05-18T20:16:45.802Z,11.90
2018-05-18T20:19:13.894Z,11.90
2018-05-18T20:21:41.993Z,12.00
2018-05-18T20:24:10.080Z,12.00
2018-05-18T20:26:38.211Z,12.00
2018-05-18T20:29:06.332Z,12.00
2018-05-18T20:31:34.430Z,12.00
2018-05-18T20:34:03.483Z,12.00
2018-05-18T20:36:31.583Z,12.00
2018-05-18T20:39:01.616Z,12.00
2018-05-18T20:41:29.868Z,12.10
2018-05-18T20:43:59.725Z,12.10
2018-05-18T20:46:27.814Z,12.10
2018-05-18T20:48:56.808Z,12.10
2018-05-18T20:51:24.891Z,12.10
2018-05-18T20:53:53.921Z,12.10
2018-05-18T20:56:22.013Z,12.10
2018-05-18T20:58:53.542Z,12.10
2018-05-18T21:01:23.647Z,12.10
2018-05-18T21:03:51.786Z,12.00
2018-05-18T21:06:23.623Z,12.00
2018-05-18T21:08:54.457Z,11.90
2018-05-18T21:11:34.497Z,11.80
2018-05-18T21:14:03.071Z,11.80
2018-05-18T21:16:31.230Z,11.80
2018-05-18T21:19:00.230Z,11.70
2018-05-18T21:21:35.890Z,11.70
2018-05-18T21:24:08.665Z,11.70
2018-05-18T21:26:36.850Z,11.70
2018-05-18T21:29:05.828Z,11.70
2018-05-18T21:31:34.952Z,11.70
2018-05-18T21:34:11.428Z,11.60
2018-05-18T21:36:40.493Z,11.60
2018-05-18T21:39:08.630Z,11.60
2018-05-18T21:41:36.732Z,11.60
2018-05-18T21:44:04.861Z,11.60
2018-05-18T21:46:34.999Z,11.50
2018-05-18T21:49:04.808Z,11.50
2018-05-18T21:51:34.375Z,11.50
2018-05-18T21:54:03.788Z,11.40
2018-05-18T21:56:32.616Z,11.40
2018-05-18T21:59:00.717Z,11.40
2018-05-18T22:01:32.019Z,11.40
2018-05-18T22:04:01.728Z,11.40
2018-05-18T22:06:40.078Z,11.40
2018-05-18T22:09:08.863Z,11.30
2018-05-18T22:11:37.955Z,11.30
2018-05-18T22:14:06.154Z,11.30
2018-05-18T22:16:34.155Z,11.30
2018-05-18T22:19:02.254Z,11.30
2018-05-18T22:21:30.359Z,11.40
2018-05-18T22:24:00.394Z,11.30
2018-05-18T22:26:28.554Z,11.40
2018-05-18T22:28:56.642Z,11.40
2018-05-18T22:31:24.735Z,11.40
2018-05-18T22:33:52.849Z,11.30
2018-05-18T22:36:21.936Z,11.30
2018-05-18T22:38:50.969Z,11.30
2018-05-18T22:41:19.061Z,11.40
2018-05-18T22:43:48.131Z,11.40
2018-05-18T22:46:17.132Z,11.40
2018-05-18T22:48:45.232Z,11.40
2018-05-18T22:51:15.070Z,11.30
2018-05-18T22:53:43.172Z,11.30
2018-05-18T22:56:11.375Z,11.30
2018-05-18T22:58:39.444Z,11.30
2018-05-18T23:01:09.526Z,11.30
2018-05-18T23:03:37.633Z,11.30
2018-05-18T23:06:05.738Z,11.30
2018-05-18T23:08:33.811Z,11.30
2018-05-18T23:14:04.688Z,11.20
2018-05-18T23:16:33.770Z,11.20
2018-05-18T23:19:01.839Z,11.20
2018-05-18T23:21:30.913Z,11.10
2018-05-18T23:24:02.917Z,11.10
2018-05-18T23:26:31.773Z,11.10
2018-05-18T23:28:59.850Z,11.10
2018-05-18T23:31:27.954Z,11.10
2018-05-18T23:34:07.941Z,11.10
2018-05-18T23:36:36.066Z,11.10
2018-05-18T23:39:06.163Z,11.10
2018-05-18T23:41:35.061Z,11.10
2018-05-18T23:44:03.924Z,11.10
2018-05-18T23:46:32.048Z,11.10
2018-05-18T23:49:00.136Z,11.10
2018-05-18T23:51:29.981Z,11.10
2018-05-18T23:53:58.077Z,11.10
2018-05-18T23:56:28.202Z,11.10
2018-05-18T23:58:56.297Z,11.10
